Jean-Luc Lefebvre

Scout - Red Star
3 Dez 2028
Sonntag
Verarbeitung

Persönlichkeit

Anpassungsfähigkeit (8) Ehrgeiz (19) Kontroverse (4) Loyalität (4) Druck (1) Professionalität (8) Fairness (1) Temperament (5)

Profil

Trainerstil Demokratisch
Lizenz Nationale A
Entschlossenheit 7
Menschenführung 11
Motivation 4
Disziplin 3
Arbeitszufriedenheit
100%
Ermüdung
0%
Rolle Scout
Gehalt 19.7K p/W
Vertrag 14.03.2029

Leistung

Verhalten Gut
Trainingseffektivität
29%
Spielerentwicklung
45%
Verletzungsprävention
55%
Taktische Umsetzung
15%

Letzte Ereignisse

Nahm an einer Scouting-Besprechung teil 14T her
Nahm an einer Scouting-Besprechung teil 21T her
Nahm an einer Scouting-Besprechung teil 28T her
Nahm an einer Scouting-Besprechung teil 35T her
Nahm an einer Scouting-Besprechung teil 42T her
Nahm an einer Scouting-Besprechung teil 49T her
Nahm an einer Scouting-Besprechung teil 56T her
Empfahl ein Transferziel 56T her

Aktuell beobachtet

187
Spieler Verein Status Fähigkeit Vertrauen Beobachtet Zuletzt beobachtet Letzte Stimme
Peyton Miller New England Revolution Aktiv 98 / 137 40% 1 14.08.2028 -
Fabio Rispoli Como Aktiv 118 / 116 40% 1 14.08.2028 -
Diego Gaitán Maipú Aktiv 129 / 132 40% 1 10.08.2028 -
Ousmane Coulibaly Stade Malien Aktiv 104 / 103 40% 1 10.08.2028 -
Kwesi Sorotu Badori Berekum Chelsea Aktiv 94 / 93 40% 1 08.08.2028 -
Djibrine Abakar Stars Jeunes Talents Aktiv 58 / 71 40% 1 08.08.2028 -
Igor Tyjon Barrow AFC Aktiv 118 / 131 40% 3 07.08.2028 -
Tomás Pozzo Godoy Cruz Aktiv 141 / 113 40% 1 07.08.2028 -
Callum Wright Plymouth Argyle Aktiv 126 / 110 40% 1 25.07.2028 -
Juan Sebastián Herrera Deportivo La Guaira Aktiv 116 / 96 40% 1 22.07.2028 -
Darragh Burns Grimsby Town Aktiv 116 / 118 40% 1 22.07.2028 -
Luca Meirelles Kudrivka Aktiv 120 / 118 40% 1 20.07.2028 -
Jordan Gibson Cheltenham Town Aktiv 118 / 111 40% 1 20.07.2028 -
Jon Eceizabarrena Real Sociedad Aktiv 107 / 110 40% 1 19.07.2028 -
Aaron Morley Wycombe Wanderers Aktiv 116 / 133 40% 1 19.07.2028 -
Diego Vargas Universidad de Concepcion Aktiv 88 / 103 40% 3 18.07.2028 -
Gideon Manaseh Ikorodu City Aktiv 84 / 89 40% 3 18.07.2028 -
Caylan Vickers Burton Albion Aktiv 113 / 124 40% 1 18.07.2028 -
Fletcher Boyd Accrington Stanley Aktiv 106 / 112 40% 1 18.07.2028 -
Jenson Metcalfe Bradford City Aktiv 115 / 124 40% 1 16.07.2028 -
Mohamadou Kanté Crawley Town Aktiv 132 / 124 40% 1 14.07.2028 -
Gabe Forsyth Colchester United Aktiv 110 / 121 40% 1 14.07.2028 -
Leighton Clarkson Blackpool Aktiv 135 / 129 40% 1 13.07.2028 -
Adam Phillips Northampton Town Aktiv 125 / 120 40% 1 13.07.2028 -
Kyreece Lisbie Colchester United Aktiv 117 / 109 40% 1 12.07.2028 -
Chiquinho Leixões Aktiv 146 / 139 40% 1 12.07.2028 -
Daouda Coulibaly Stade Malien Aktiv 95 / 98 40% 1 11.07.2028 -
Jan Bürger Northampton Town Aktiv 116 / 128 40% 1 10.07.2028 -
Atsuki Ito Bolton Wanderers Aktiv 140 / 129 40% 2 07.07.2028 -
Josh Benson Rotherham United Aktiv 117 / 111 40% 2 05.07.2028 -
Kiani Inge Groningen Aktiv 112 / 118 40% 2 04.07.2028 -
Tibe De Vlieger KAA Gent Aktiv 109 / 127 40% 1 04.07.2028 -
Reyes Cleary Bromley Aktiv 125 / 123 40% 1 04.07.2028 -
Kyle John Port Vale Aktiv 114 / 111 40% 1 02.07.2028 -
Dennis Cirkin Queens Park Rangers Aktiv 142 / 128 40% 1 28.06.2028 -
Ryan McAidoo Oldham Athletic Aktiv 125 / 127 40% 1 28.06.2028 -
Thierry Gale Swindon Town Aktiv 120 / 126 40% 1 27.06.2028 -
Flynn Downes Sheffield Wednesday Aktiv 144 / 136 40% 1 27.06.2028 -
Arsene Mekila Gazelle Garoua Aktiv 77 / 105 40% 5 26.06.2028 -
Richard Koné Queens Park Rangers Aktiv 138 / 127 40% 1 24.06.2028 -
Jalen Blesa Oliveirense Aktiv 122 / 134 40% 1 22.06.2028 -
James Dornelly Peterborough United Aktiv 117 / 109 40% 1 22.06.2028 -
Odin Bailey Stockport County Aktiv 119 / 112 40% 1 21.06.2028 -
Ben Wiles Milton Keynes Dons Aktiv 126 / 118 40% 1 21.06.2028 -
Kevin Medina Mirandés Aktiv 125 / 119 40% 1 15.06.2028 -
Isaac Monnier FC Lorient Aktiv 93 / 109 40% 3 02.06.2028 -
Luis Otávio Orlando City Aktiv 126 / 131 40% 1 02.06.2028 -
Jason Witsel PSV Aktiv 129 / 122 40% 4 01.06.2028 -
Denis Grigorjev Arsenal Tula Aktiv 81 / 107 40% 1 01.06.2028 -
Kelian Le Pironnec Mirandés Aktiv 105 / 94 40% 6 31.05.2028 -
Olivier Leroux Mouscron Aktiv 109 / 107 40% 4 31.05.2028 -
Filippo Manfrin Arzignano Aktiv 111 / 113 40% 2 31.05.2028 -
Ludovico Del Sorbo Sorrento Aktiv 113 / 133 40% 3 31.05.2028 -
George Hall Port Vale Aktiv 123 / 121 40% 1 31.05.2028 -
Aliou Diakité Real Bamako Aktiv 111 / 108 40% 1 31.05.2028 -
Maël Monyebe Gazelle Garoua Aktiv 97 / 98 40% 2 30.05.2028 -
Ahmed Zaki Masr El Makasa Aktiv 80 / 86 40% 1 30.05.2028 -
Frankarlos Benítez Caracas Aktiv 131 / 119 40% 2 29.05.2028 -
Josh Nichols Oldham Athletic Aktiv 122 / 126 40% 4 28.05.2028 -
Nko Ghangle Rattensi Victoria United Aktiv 85 / 88 40% 1 28.05.2028 -
Itumeleng Grobler Free State Stars Aktiv 112 / 98 40% 3 27.05.2028 -
Miguel Figueiredo Benfica Aktiv 127 / 128 40% 2 27.05.2028 -
Amanuel Pellaers Racing Genk Aktiv 83 / 108 40% 2 27.05.2028 -
Máximo Núñez Los Andes Aktiv 85 / 99 40% 1 26.05.2028 -
Marius Louër Angers SCO Aktiv 104 / 128 40% 1 26.05.2028 -
Anthony Cletus Bendel Insurance Aktiv 97 / 99 40% 3 25.05.2028 -
Simone Suppa Virtus Verona Aktiv 83 / 99 40% 2 22.05.2028 -
Ousmane Simpara Etoiles du Mande Aktiv 97 / 118 40% 2 22.05.2028 -
Pavlo Isenko Universitatea Craiova Aktiv 122 / 114 40% 1 22.05.2028 -
Nahuel González Alvarado Aktiv 90 / 99 40% 1 22.05.2028 -
Sam Proctor Salford City Aktiv 117 / 134 40% 3 20.05.2028 -
Adam Hrdina Zbrojovka Brno Aktiv 131 / 121 40% 3 20.05.2028 -
Joe Whitworth Wigan Athletic Aktiv 119 / 134 40% 2 19.05.2028 -
Davide Mastrantonio Latina Aktiv 102 / 99 40% 1 19.05.2028 -
Kwame Nuhu Heart of Lions Aktiv 81 / 86 40% 1 18.05.2028 -
Stanislav Bukatov Salyut Aktiv 77 / 92 40% 1 17.05.2028 -
Matúš Sláviček AS Trencin Aktiv 121 / 112 40% 1 17.05.2028 -
Andrés Macea Deportivo Pereira Aktiv 89 / 104 40% 1 16.05.2028 -
Nicolò Moranduzzo Renate Aktiv 95 / 100 40% 2 14.05.2028 -
Andrey Ivlev Nizhniy Novgorod Aktiv 129 / 112 40% 2 14.05.2028 -
David Fernande PWD Bamenda Aktiv 62 / 64 40% 2 13.05.2028 -
Mateo Albornoz Castellón Aktiv 97 / 102 40% 2 11.05.2028 -
Stephen McMullan Fleetwood Town Aktiv 97 / 118 40% 2 11.05.2028 -
Ifeanyi Emmanuel Niger Tornadoes Aktiv 113 / 120 40% 3 09.05.2028 -
Luca Pausé Groningen Aktiv 99 / 112 40% 1 09.05.2028 -
Joel Ezra Enyimba Aktiv 113 / 117 40% 2 08.05.2028 -
Roman Zhoglo Birkirkara Aktiv 96 / 95 40% 1 08.05.2028 -
Alvin Binsto PWD Bamenda Aktiv 102 / 82 40% 1 08.05.2028 -
Amine Boukamir Charleroi Aktiv 105 / 112 40% 3 07.05.2028 -
Daniel Banjaqui Benfica Aktiv 125 / 131 40% 3 07.05.2028 -
Sergio Barlocco Trento Aktiv 126 / 124 40% 3 06.05.2028 -
Aboubacar Meïté Afrique Foot Elite Aktiv 89 / 108 40% 2 06.05.2028 -
Mikhail Gaidash Spartak Kostroma Aktiv 100 / 102 40% 2 05.05.2028 -
Destiny Geneneke PWD Bamenda Aktiv 92 / 100 40% 1 04.05.2028 -
Kamaldeen Atiemo Wa All Stars Aktiv 96 / 113 40% 2 03.05.2028 -
Cristian Santander Barranquilla Aktiv 132 / 109 40% 2 02.05.2028 -
Leon Borković Irkutsk Aktiv 75 / 94 40% 1 02.05.2028 -
Maxim Shichanin Zenit Aktiv 99 / 112 40% 4 28.04.2028 -
Matteo Raffaelli Ascoli Aktiv 113 / 121 40% 2 28.04.2028 -
Tobías Ramírez River Plate Aktiv 131 / 127 40% 1 28.04.2028 -
Konta Ismaily Aktiv 99 / 106 40% 3 27.04.2028 -
Robert Cook Accrington Stanley Aktiv 108 / 122 40% 1 27.04.2028 -
Luca Martelli Forli Aktiv 101 / 91 40% 2 25.04.2028 -
Andy Ezekiel Petrojet Aktiv 92 / 105 40% 3 24.04.2028 -
George Evans Exeter City Aktiv 121 / 123 40% 2 23.04.2028 -
Facundo Vila Estudiantes Aktiv 126 / 127 40% 2 23.04.2028 -
Thijs Kraaijeveld USM Alger Aktiv 122 / 129 40% 2 23.04.2028 -
Alessio Insignito Spezia Aktiv 108 / 103 40% 1 22.04.2028 -
Gregory Sekyere Aduana Stars Aktiv 114 / 83 40% 1 21.04.2028 -
Gael Moreno Morelia Aktiv 57 / 87 40% 1 21.04.2028 -
Kubrat Onasci Septemvri Aktiv 98 / 109 40% 1 21.04.2028 -
Matthew Rowley Reading Aktiv 99 / 96 40% 1 20.04.2028 -
Kamiel Timmermans Anderlecht Aktiv 87 / 101 40% 1 19.04.2028 -
Emeka Kelvin Agu Sliema Wanderers Aktiv 86 / 96 40% 1 19.04.2028 -
Thato Sibiya Orlando Pirates Aktiv 118 / 118 40% 1 19.04.2028 -
Gabriele Baldi Guidonia Montecelio Aktiv 106 / 122 40% 2 18.04.2028 -
Bernardo Lima Porto Aktiv 100 / 107 40% 2 18.04.2028 -
Lisandro Musso Central Córdoba SdE Aktiv 98 / 106 40% 1 18.04.2028 -
Themba Modiba Black Aces Aktiv 82 / 88 40% 1 18.04.2028 -
Alejo Medina Agropecuario Argentino Aktiv 116 / 113 40% 1 17.04.2028 -
Gladson Amoah Liberty Professionals Aktiv 114 / 85 40% 1 16.04.2028 -
Pierre Ikong Dynamo Douala Aktiv 77 / 101 40% 1 16.04.2028 -
Ezechiel Djimet AS Algoy Aktiv 66 / 77 40% 1 16.04.2028 -
Mate Modric Zadar Aktiv 137 / 121 40% 1 15.04.2028 -
Nour Ashraf ENPPI Aktiv 91 / 89 40% 1 15.04.2028 -
Matvey Bardachev Zenit Aktiv 94 / 103 40% 2 14.04.2028 -
Riquelme Thompson-Jones Accrington Stanley Aktiv 107 / 108 40% 2 13.04.2028 -
Filip Marschall Stevenage Aktiv 118 / 135 40% 2 13.04.2028 -
Augusto Bando Ascoli Aktiv 101 / 110 40% 1 11.04.2028 -
Killian Cahill Leyton Orient Aktiv 118 / 106 40% 2 10.04.2028 -
Artem Nosachev Spartak Moscow Aktiv 79 / 70 40% 1 10.04.2028 -
Andrea Sergio Mazza Giana Erminio Aktiv 98 / 100 40% 3 09.04.2028 -
Marc Colin Tours Aktiv 121 / 118 40% 1 08.04.2028 -
Zoltan Kleinheisler Haladas Aktiv 110 / 106 40% 1 07.04.2028 -
Claudio Martey Pianese Aktiv 85 / 99 40% 1 06.04.2028 -
Jack Wint Sibenik Aktiv 88 / 91 40% 1 06.04.2028 -
Diego Bolaños Veracruz Aktiv 81 / 105 40% 1 05.04.2028 -
Martim Cunha Porto Aktiv 115 / 102 40% 1 03.04.2028 -
Ali Ishaku Abia Warriors Aktiv 109 / 118 40% 1 31.03.2028 -
Tyler Fletcher Rotherham United Aktiv 101 / 107 40% 3 29.03.2028 -
Stefan Mitrović Zeleznicar Pancevo Aktiv 103 / 82 40% 1 25.03.2028 -
Ismaël Fansu Unisport Bafang Aktiv 73 / 83 40% 2 24.03.2028 -
Idrissa Sabaly Valenciennes Aktiv 88 / 115 40% 2 24.03.2028 -
Khama Mabunda Platinum Stars Aktiv 83 / 69 40% 2 23.03.2028 -
Ahmat Doungous Gazelle Aktiv 44 / 56 40% 1 23.03.2028 -
Jakub Badžgoň MSK Zilina Aktiv 104 / 116 40% 1 22.03.2028 -
Lior Mashansky Foullah Edifice Aktiv 64 / 58 40% 2 21.03.2028 -
Ahmat Abba AS Etat Major Aktiv 75 / 58 40% 1 21.03.2028 -
Ronan Kpakio AC Milan Aktiv 134 / 134 40% 1 20.03.2028 -
Nikita Yanovich Tyumen Aktiv 116 / 89 40% 1 19.03.2028 -
Dmitry Loktev Rotor Aktiv 49 / 46 40% 1 18.03.2028 -
Antonino Viola Catania Aktiv 112 / 108 40% 1 16.03.2028 -
Alain Zadi Sarpsborg 08 Aktiv 101 / 101 40% 1 16.03.2028 -
James Tendoh Canon Yaounde Aktiv 82 / 73 40% 1 16.03.2028 -
Tobiáš Pališčák Zlin Aktiv 101 / 123 40% 1 06.03.2028 -
Isaías Silva Miramar Misiones Aktiv 74 / 101 40% 2 31.12.2027 -
David Damboama El-Kanemi Warriors Aktiv 79 / 85 40% 3 31.12.2027 -
Olaniyi Saheed Kwara United Aktiv 87 / 98 40% 1 27.12.2027 -
Lucas Nicol Mjondalen Aktiv 79 / 89 40% 2 26.12.2027 -
Esquerdinha Notts County Aktiv 126 / 137 40% 3 26.12.2027 -
Melvin Vučenović Persson Atvidaberg Aktiv 85 / 95 40% 3 25.12.2027 -
Francisco Machis Llaneros Aktiv 93 / 101 40% 2 24.12.2027 -
Lucas Camejo River Plate Aktiv 70 / 105 40% 5 20.12.2027 -
Tiago Gordillo San Miguel Aktiv 94 / 105 40% 2 15.12.2027 -
Onyeuche Ujunwa Ikorodu City Aktiv 86 / 107 40% 6 14.12.2027 -
Hosea Michael Remo Stars Aktiv 101 / 94 40% 3 12.12.2027 -
Ivan Borges Defensores Aktiv 85 / 106 40% 5 09.12.2027 -
Nazareno Roselli Defensa y Justicia Aktiv 116 / 121 40% 1 09.12.2027 -
Yury Oyarzo Racing Aktiv 98 / 108 40% 1 06.12.2027 -
Godswill Kenu Bayelsa United Aktiv 67 / 80 40% 1 06.12.2027 -
Nicolas Sport Recife Aktiv 100 / 124 40% 1 03.12.2027 -
Bogard Agbor PWD Bamenda Aktiv 65 / 86 40% 1 30.11.2027 -
Juan Camilo Córdoba Deportivo Pereira Aktiv 81 / 104 40% 1 29.11.2027 -
Agustín Obregón River Plate Aktiv 126 / 119 40% 2 21.11.2027 -
Mohamed Moussa Koïta Mathare United Aktiv 110 / 113 40% 1 21.11.2027 -
Mohammed Habib Sarwari Kariobangi Sharks Aktiv 57 / 67 40% 1 12.11.2027 -
Matys Donavin AC Ajaccio Aktiv 93 / 103 40% 1 09.11.2027 -
Ignacio Fernández Boston River Aktiv 97 / 102 40% 1 08.11.2027 -
Daniel Idoko Ikorodu City Aktiv 89 / 100 40% 2 05.11.2027 -
Idriss Ashiru Kariobangi Sharks Aktiv 60 / 72 40% 2 04.11.2027 -
Nahuel Leivas Montevideo City Torque Aktiv 114 / 104 40% 1 04.11.2027 -
Adrian Skogmar Malmo FF Aktiv 122 / 107 40% 1 19.10.2027 -
Juan Diego Perdomo Depor Aktiv 95 / 107 40% 2 18.10.2027 -
Esteban de Lima Tacuarembo Aktiv 99 / 111 40% 1 17.10.2027 -
Fallou Fall Olympique Lyonnais Aktiv 97 / 89 58% 1 21.06.2027 -
Georges Gomis Le Havre AC Aktiv 102 / 120 58% 1 14.06.2027 -
Rocco Vata Watford Aktiv 128 / 135 40% 1 31.12.2026 -